Mirgab Vi — ZGAO4 — position and weather

sailwx.info

Track history (hours):
 
Tides and Currents Weather Stations Pressure Air Temp Water Temp Dewpoint Dewpoint Depression Visibility Wind Speed Wind Dir Waves Ship Positions

Mirgab Vi

Last reported at 2014-Sep-14 19:22 UTC. Time now 2014-Sep-22 04:13 UTC.
Position N 37°06' E 027°17'.

Length 49 m; draft 2.9 m.

Type: Pleasure craft. MMSI: 319394000.

Date/timePositionNaut miles runAvg speedWind from/ knotsBaromVisibWave heightAir tempDewpointWater temp
2014-Sep-14 19:22N 37°06' E 027°17'0 0.0
2014-Sep-13 19:31N 37°06' E 027°17'3 0.8
2014-Sep-13 15:15N 37°10' E 027°18'3 0.3
2014-Sep-13 02:33N 37°06' E 027°17'3 0.2
2014-Sep-12 06:08N 37°09' E 027°15'  
2014-Sep-08 14:27N 37°27' E 025°55'1111.3
2014-Sep-08 13:28N 37°25' E 025°42'1111.6
2014-Sep-08 12:33N 37°23' E 025°29'1111.5
2014-Sep-08 11:33N 37°21' E 025°14'2 1.6
2014-Sep-08 10:32N 37°23' E 025°14'0 0.0
2014-Sep-08 09:32N 37°23' E 025°14'0 0.0
2014-Sep-08 08:32N 37°23' E 025°14'3 2.7
2014-Sep-08 07:33N 37°24' E 025°17'4 3.6
2014-Sep-08 06:32N 37°27' E 025°20'0 0.0
2014-Sep-08 05:32N 37°27' E 025°20'0 0.0
2014-Sep-08 04:32N 37°27' E 025°20'0 0.0
2014-Sep-08 03:32N 37°27' E 025°20'0 0.0
2014-Sep-08 02:32N 37°27' E 025°20'0 0.0
2014-Sep-08 01:32N 37°27' E 025°20'0 0.0
2014-Sep-08 00:32N 37°27' E 025°20'0 0.0
2014-Sep-07 23:32N 37°27' E 025°20'0 0.0
2014-Sep-07 22:32N 37°27' E 025°20'0 0.0
2014-Sep-07 21:27N 37°27' E 025°20'0 0.0
2014-Sep-07 20:32N 37°27' E 025°20'0 0.0
2014-Sep-07 19:32N 37°27' E 025°20'0 0.0
2014-Sep-07 18:32N 37°27' E 025°20'0 0.0
2014-Sep-07 17:32N 37°27' E 025°20'0 0.0
2014-Sep-07 16:32N 37°27' E 025°20'0 0.0
2014-Sep-07 15:32N 37°27' E 025°20'0 0.0
2014-Sep-07 14:33N 37°27' E 025°20'0 0.0
2014-Sep-07 13:33N 37°27' E 025°20'3 2.5
2014-Sep-07 12:31N 37°25' E 025°21'0 0.0
2014-Sep-07 11:31N 37°25' E 025°21'0 0.0
2014-Sep-07 10:31N 37°25' E 025°21'0 0.0
2014-Sep-07 09:31N 37°25' E 025°21'0 0.0
2014-Sep-07 08:31N 37°25' E 025°21'1 1.0
2014-Sep-07 07:33N 37°24' E 025°20'3 3.0
2014-Sep-07 06:33N 37°27' E 025°20'0 0.0
2014-Sep-07 05:29N 37°27' E 025°20'0 0.0
2014-Sep-07 04:32N 37°27' E 025°20'0 0.0
2014-Sep-07 03:32N 37°27' E 025°20'0 0.0
2014-Sep-07 02:32N 37°27' E 025°20'0 0.0
2014-Sep-07 01:32N 37°27' E 025°20'0 0.0
2014-Sep-07 00:32N 37°27' E 025°20'0 0.0
2014-Sep-06 23:32N 37°27' E 025°20'0 0.0
2014-Sep-06 22:32N 37°27' E 025°20'0 0.0
2014-Sep-06 21:32N 37°27' E 025°20'0 0.0
2014-Sep-06 20:32N 37°27' E 025°20'0 0.0
2014-Sep-06 19:32N 37°27' E 025°20'0 0.0
2014-Sep-06 18:32N 37°27' E 025°20'0 0.0
2014-Sep-06 17:32N 37°27' E 025°20'0 0.0
2014-Sep-06 16:32N 37°27' E 025°20'0 0.0
2014-Sep-06 15:29N 37°27' E 025°20'0 0.0
2014-Sep-06 14:32N 37°27' E 025°20'0 0.0
2014-Sep-06 13:32N 37°27' E 025°20'0 0.0
2014-Sep-06 12:29N 37°27' E 025°20'2 2.4
2014-Sep-06 11:33N 37°26' E 025°17'3 3.0
2014-Sep-06 10:33N 37°25' E 025°20'0 0.0
2014-Sep-06 09:32N 37°25' E 025°20'0 0.0
2014-Sep-06 08:33N 37°25' E 025°20'2 1.6
2014-Sep-06 07:34N 37°24' E 025°19'3 3.4
2014-Sep-06 06:33N 37°27' E 025°20'0 0.0
2014-Sep-06 05:33N 37°27' E 025°20'0 0.0
2014-Sep-06 04:33N 37°27' E 025°20'0 0.0
2014-Sep-06 03:33N 37°27' E 025°20'0 0.0
2014-Sep-06 02:33N 37°27' E 025°20'0 0.0
2014-Sep-06 01:33N 37°27' E 025°20'0 0.0
2014-Sep-06 00:33N 37°27' E 025°20'0 0.0
2014-Sep-05 23:33N 37°27' E 025°20'0 0.0
2014-Sep-05 22:33N 37°27' E 025°20'0 0.0
2014-Sep-05 21:33N 37°27' E 025°20'0 0.0
2014-Sep-05 20:33N 37°27' E 025°20'0 0.0
2014-Sep-05 19:33N 37°27' E 025°20'0 0.0
2014-Sep-05 18:33N 37°27' E 025°20'0 0.0
2014-Sep-05 17:33N 37°27' E 025°20'0 0.0
2014-Sep-05 16:33N 37°27' E 025°20'0 0.0
2014-Sep-05 15:33N 37°27' E 025°20'0 0.0
2014-Sep-05 14:33N 37°27' E 025°20'0 0.0
2014-Sep-05 13:33N 37°27' E 025°20'0 0.0
2014-Sep-05 12:33N 37°27' E 025°20'1 0.6
2014-Sep-05 11:33N 37°27' E 025°19'3 2.7
2014-Sep-05 10:33N 37°25' E 025°20'0 0.0
2014-Sep-05 09:33N 37°25' E 025°20'0 0.0
2014-Sep-05 08:33N 37°25' E 025°20'3 2.9
2014-Sep-05 07:33N 37°26' E 025°17'2 2.4
2014-Sep-05 06:32N 37°27' E 025°20'0 0.0
2014-Sep-05 05:32N 37°27' E 025°20'0 0.0
2014-Sep-05 04:32N 37°27' E 025°20'0 0.0
2014-Sep-05 03:32N 37°27' E 025°20'0 0.0
2014-Sep-05 02:32N 37°27' E 025°20'0 0.0
2014-Sep-05 01:32N 37°27' E 025°20'0 0.0
2014-Sep-05 00:32N 37°27' E 025°20'0 0.0
2014-Sep-04 23:32N 37°27' E 025°20'0 0.0
2014-Sep-04 22:32N 37°27' E 025°20'0 0.0
2014-Sep-04 21:32N 37°27' E 025°20'0 0.0
2014-Sep-04 20:32N 37°27' E 025°20'0 0.0
2014-Sep-04 19:32N 37°27' E 025°20'  
Track history (hours):
 
Tides and Currents Weather Stations Pressure Air Temp Water Temp Dewpoint Dewpoint Depression Visibility Wind Speed Wind Dir Waves Ship Positions

Mirgab Vi

Last reported at 2014-Sep-14 19:22 UTC. Time now 2014-Sep-22 04:13 UTC.
Position N 37°06' E 027°17'.

Length 49 m; draft 2.9 m.

Type: Pleasure craft. MMSI: 319394000.

Date/timePositionNaut miles runAvg speedWind from/ knotsBaromVisibWave heightAir tempDewpointWater temp
2014-Sep-14 19:22N 37°06' E 027°17'0 0.0
2014-Sep-13 19:31N 37°06' E 027°17'3 0.8
2014-Sep-13 15:15N 37°10' E 027°18'3 0.3
2014-Sep-13 02:33N 37°06' E 027°17'3 0.2
2014-Sep-12 06:08N 37°09' E 027°15'  
2014-Sep-08 14:27N 37°27' E 025°55'1111.3
2014-Sep-08 13:28N 37°25' E 025°42'1111.6
2014-Sep-08 12:33N 37°23' E 025°29'1111.5
2014-Sep-08 11:33N 37°21' E 025°14'2 1.6
2014-Sep-08 10:32N 37°23' E 025°14'0 0.0
2014-Sep-08 09:32N 37°23' E 025°14'0 0.0
2014-Sep-08 08:32N 37°23' E 025°14'3 2.7
2014-Sep-08 07:33N 37°24' E 025°17'4 3.6
2014-Sep-08 06:32N 37°27' E 025°20'0 0.0
2014-Sep-08 05:32N 37°27' E 025°20'0 0.0
2014-Sep-08 04:32N 37°27' E 025°20'0 0.0
2014-Sep-08 03:32N 37°27' E 025°20'0 0.0
2014-Sep-08 02:32N 37°27' E 025°20'0 0.0
2014-Sep-08 01:32N 37°27' E 025°20'0 0.0
2014-Sep-08 00:32N 37°27' E 025°20'0 0.0
2014-Sep-07 23:32N 37°27' E 025°20'0 0.0
2014-Sep-07 22:32N 37°27' E 025°20'0 0.0
2014-Sep-07 21:27N 37°27' E 025°20'0 0.0
2014-Sep-07 20:32N 37°27' E 025°20'0 0.0
2014-Sep-07 19:32N 37°27' E 025°20'0 0.0
2014-Sep-07 18:32N 37°27' E 025°20'0 0.0
2014-Sep-07 17:32N 37°27' E 025°20'0 0.0
2014-Sep-07 16:32N 37°27' E 025°20'0 0.0
2014-Sep-07 15:32N 37°27' E 025°20'0 0.0
2014-Sep-07 14:33N 37°27' E 025°20'0 0.0
2014-Sep-07 13:33N 37°27' E 025°20'3 2.5
2014-Sep-07 12:31N 37°25' E 025°21'0 0.0
2014-Sep-07 11:31N 37°25' E 025°21'0 0.0
2014-Sep-07 10:31N 37°25' E 025°21'0 0.0
2014-Sep-07 09:31N 37°25' E 025°21'0 0.0
2014-Sep-07 08:31N 37°25' E 025°21'1 1.0
2014-Sep-07 07:33N 37°24' E 025°20'3 3.0
2014-Sep-07 06:33N 37°27' E 025°20'0 0.0
2014-Sep-07 05:29N 37°27' E 025°20'0 0.0
2014-Sep-07 04:32N 37°27' E 025°20'0 0.0
2014-Sep-07 03:32N 37°27' E 025°20'0 0.0
2014-Sep-07 02:32N 37°27' E 025°20'0 0.0
2014-Sep-07 01:32N 37°27' E 025°20'0 0.0
2014-Sep-07 00:32N 37°27' E 025°20'0 0.0
2014-Sep-06 23:32N 37°27' E 025°20'0 0.0
2014-Sep-06 22:32N 37°27' E 025°20'0 0.0
2014-Sep-06 21:32N 37°27' E 025°20'0 0.0
2014-Sep-06 20:32N 37°27' E 025°20'0 0.0
2014-Sep-06 19:32N 37°27' E 025°20'0 0.0
2014-Sep-06 18:32N 37°27' E 025°20'0 0.0
2014-Sep-06 17:32N 37°27' E 025°20'0 0.0
2014-Sep-06 16:32N 37°27' E 025°20'0 0.0
2014-Sep-06 15:29N 37°27' E 025°20'0 0.0
2014-Sep-06 14:32N 37°27' E 025°20'0 0.0
2014-Sep-06 13:32N 37°27' E 025°20'0 0.0
2014-Sep-06 12:29N 37°27' E 025°20'2 2.4
2014-Sep-06 11:33N 37°26' E 025°17'3 3.0
2014-Sep-06 10:33N 37°25' E 025°20'0 0.0
2014-Sep-06 09:32N 37°25' E 025°20'0 0.0
2014-Sep-06 08:33N 37°25' E 025°20'2 1.6
2014-Sep-06 07:34N 37°24' E 025°19'3 3.4
2014-Sep-06 06:33N 37°27' E 025°20'0 0.0
2014-Sep-06 05:33N 37°27' E 025°20'0 0.0
2014-Sep-06 04:33N 37°27' E 025°20'0 0.0
2014-Sep-06 03:33N 37°27' E 025°20'0 0.0
2014-Sep-06 02:33N 37°27' E 025°20'0 0.0
2014-Sep-06 01:33N 37°27' E 025°20'0 0.0
2014-Sep-06 00:33N 37°27' E 025°20'0 0.0
2014-Sep-05 23:33N 37°27' E 025°20'0 0.0
2014-Sep-05 22:33N 37°27' E 025°20'0 0.0
2014-Sep-05 21:33N 37°27' E 025°20'0 0.0
2014-Sep-05 20:33N 37°27' E 025°20'0 0.0
2014-Sep-05 19:33N 37°27' E 025°20'0 0.0
2014-Sep-05 18:33N 37°27' E 025°20'0 0.0
2014-Sep-05 17:33N 37°27' E 025°20'0 0.0
2014-Sep-05 16:33N 37°27' E 025°20'0 0.0
2014-Sep-05 15:33N 37°27' E 025°20'0 0.0
2014-Sep-05 14:33N 37°27' E 025°20'0 0.0
2014-Sep-05 13:33N 37°27' E 025°20'0 0.0
2014-Sep-05 12:33N 37°27' E 025°20'1 0.6
2014-Sep-05 11:33N 37°27' E 025°19'3 2.7
2014-Sep-05 10:33N 37°25' E 025°20'0 0.0
2014-Sep-05 09:33N 37°25' E 025°20'0 0.0
2014-Sep-05 08:33N 37°25' E 025°20'3 2.9
2014-Sep-05 07:33N 37°26' E 025°17'2 2.4
2014-Sep-05 06:32N 37°27' E 025°20'0 0.0
2014-Sep-05 05:32N 37°27' E 025°20'0 0.0
2014-Sep-05 04:32N 37°27' E 025°20'0 0.0
2014-Sep-05 03:32N 37°27' E 025°20'0 0.0
2014-Sep-05 02:32N 37°27' E 025°20'0 0.0
2014-Sep-05 01:32N 37°27' E 025°20'0 0.0
2014-Sep-05 00:32N 37°27' E 025°20'0 0.0
2014-Sep-04 23:32N 37°27' E 025°20'0 0.0
2014-Sep-04 22:32N 37°27' E 025°20'0 0.0
2014-Sep-04 21:32N 37°27' E 025°20'0 0.0
2014-Sep-04 20:32N 37°27' E 025°20'0 0.0
2014-Sep-04 19:32N 37°27' E 025°20'  

Dump ship's entire track history